METAR AND TAF INFORMATION
METAR FOR EGPH
ADDS - METARS form results

(1044 UTC 05 March 2021)
Data provider http://aviationweather.gov/metar/data/
 
METAR text: EGPH 051020Z VRB03KT 9999 OVC028 03/M03 Q1035
Conditions at: EGPH (EDINBURGH AIRPOR, GB) observed 1020 UTC 05 March 2021
Temperature: 3.0°C (37°F)
Dewpoint: -3.0°C (27°F) [RH = 65%]
Pressure (altimeter): 30.56 inches Hg (1035.0 mb)
Winds: variable direction winds at 3 MPH (3 knots; 1.5 m/s)
Visibility: 6 or more miles (10+ km)
Ceiling: 2800 feet AGL
Clouds: overcast cloud deck at 2800 feet AGL
Weather: no significant weather observed at this time

METAR text: EGPH 050950Z VRB03KT 9999 OVC032 03/M03 Q1035
Conditions at: EGPH (EDINBURGH AIRPOR, GB) observed 0950 UTC 05 March 2021
Temperature: 3.0°C (37°F)
Dewpoint: -3.0°C (27°F) [RH = 65%]
Pressure (altimeter): 30.56 inches Hg (1035.0 mb)
Winds: variable direction winds at 3 MPH (3 knots; 1.5 m/s)
Visibility: 6 or more miles (10+ km)
Ceiling: 3200 feet AGL
Clouds: overcast cloud deck at 3200 feet AGL
Weather: no significant weather observed at this time

Forecast for: EGPH (EDINBURGH AIRPOR, GB)
Text: TAF EGPH 050457Z 0506/0606 VRB03KT 9999 SCT030
Forecast period: 0600 UTC 05 March 2021 to 0600 UTC 06 March 2021
Forecast type: FROM: standard forecast or significant change
Winds: variable direction winds at 3 MPH (3 knots; 1.5 m/s)
Visibility: 6 or more miles (10+ km)
Ceiling: at least 12,000 feet AGL
Clouds: scattered clouds at 3000 feet AGL
Weather: no significant weather forecast for this period

 AIRPORT MAP

 RUNWAY INFORMATION
Runway 06 Runway length 8400 ft Runway width 150 ft
Runway elevation 110 ft Runway displaced threshold 700 ft Runway heading 59
Runway 24 Runway length 8400 ft Runway width 150 ft
Runway elevation 100 ft Runway displaced threshold 700 ft Runway heading 239
Runway 08 Runway length 2621 ft Runway width 150 ft
Runway elevation 100 ft Runway displaced threshold 0 ft Runway heading 70
Runway 26 Runway length 2621 ft Runway width 150 ft
Runway elevation 110 ft Runway displaced threshold 0 ft Runway heading 250
Runway 12 Runway length 5730 ft Runway width 150 ft
Runway elevation 99 ft Runway displaced threshold 0 ft Runway heading 119
Runway 30 Runway length 5730 ft Runway width 150 ft
Runway elevation 134 ft Runway displaced threshold 204 ft Runway heading 299

 AIRPORT FREQUENCIES
Type APP Name APP Frequency 121.2 MHZ
Type ATIS Name ATIS Frequency 131.35 MHZ
Type GND Name GND Frequency 121.75 MHZ
Type TWR Name TWR Frequency 118.7 MHZ

 AIRPORT NEAR NAVIGATION AIDS
Type NDB Name Edinburgh Frequency 341 KHZ
Type NDB Name Edinburgh Frequency 368 KHZ

-